Time;durP1;ratioP1;P1;durP2;ratioP2;P2;SDS_P1;SDS_P2;PMS_P1;PMS_P2;Temp;Humidity;BMP_temperature;BMP_pressure;BME280_temperature;BME280_humidity;BME280_pressure;Samples;Min_cycle;Max_cycle;Signal;HPM_P1;HPM_P2
2022/09/19 00:01:32;;;;;;;1.47;1.37;;;;;;;10.66;93.02;98064.53;1711891;83;21263;-67
2022/09/19 00:04:06;;;;;;;1.00;1.00;;;;;;;10.67;93.03;98082.27;1711852;83;21372;-65
2022/09/19 00:06:35;;;;;;;1.55;0.80;;;;;;;10.66;92.78;98076.62;1712205;83;21070;-66
2022/09/19 00:09:04;;;;;;;1.10;0.70;;;;;;;10.65;92.58;98080.39;1731120;82;21570;-66
2022/09/19 00:11:32;;;;;;;0.88;0.88;;;;;;;10.66;92.42;98077.43;1714506;82;21550;-68
2022/09/19 00:14:00;;;;;;;2.62;1.00;;;;;;;10.68;92.26;98100.00;1712081;83;21275;-67
2022/09/19 00:16:32;;;;;;;0.80;0.80;;;;;;;10.71;92.29;98075.21;1711899;83;21030;-67
2022/09/19 00:19:02;;;;;;;2.47;1.00;;;;;;;10.72;92.10;98072.25;1712828;82;20946;-66
2022/09/19 00:21:34;;;;;;;1.00;1.00;;;;;;;10.74;92.05;98070.05;1728660;82;21057;-66
2022/09/19 00:26:47;;;;;;;2.25;0.80;;;;;;;10.76;91.96;98079.98;1687836;83;21165;-66
2022/09/19 00:29:16;;;;;;;0.60;0.60;;;;;;;10.78;92.00;98089.91;1682117;85;21089;-68
2022/09/19 00:31:43;;;;;;;0.75;0.75;;;;;;;10.80;92.02;98078.84;1710732;83;21005;-66
2022/09/19 00:34:13;;;;;;;0.95;0.95;;;;;;;10.81;92.05;98076.42;1688033;83;21112;-67
2022/09/19 00:36:42;;;;;;;0.82;0.82;;;;;;;10.84;91.93;98096.00;1687704;83;21641;-66
2022/09/19 00:39:11;;;;;;;0.75;0.75;;;;;;;10.84;91.85;98088.73;1710617;83;21061;-66
2022/09/19 00:41:38;;;;;;;0.80;0.80;;;;;;;10.84;91.74;98088.73;1710193;83;21061;-66
2022/09/19 00:44:29;;;;;;;0.98;0.88;;;;;;;10.84;91.81;98096.80;1710355;83;20966;-65
2022/09/19 00:47:12;;;;;;;0.70;0.70;;;;;;;10.84;91.91;98087.39;1682621;85;20973;-66
2022/09/19 00:49:42;;;;;;;1.72;1.62;;;;;;;10.85;92.00;98097.06;1710542;83;20954;-66
2022/09/19 00:52:27;;;;;;;0.80;0.75;;;;;;;10.85;91.98;98101.64;1710617;83;21710;-66
2022/09/19 00:54:54;;;;;;;0.60;0.60;;;;;;;10.87;92.04;98119.64;1687404;83;21011;-67
2022/09/19 00:57:21;;;;;;;0.70;0.70;;;;;;;10.88;91.99;98116.67;1718340;83;20994;-66
2022/09/19 00:59:48;;;;;;;0.70;0.70;;;;;;;10.86;91.91;98116.15;1727247;83;21097;-66
2022/09/19 01:02:18;;;;;;;0.90;0.90;;;;;;;10.86;92.03;98107.28;1701851;83;21074;-67
2022/09/19 01:04:44;;;;;;;0.75;0.75;;;;;;;10.85;92.12;98123.95;1710727;83;21946;-68
2022/09/19 01:07:28;;;;;;;1.10;0.80;;;;;;;10.86;92.17;98117.50;1710514;83;21605;-66
2022/09/19 01:10:12;;;;;;;0.70;0.70;;;;;;;10.90;92.12;98110.44;1653761;86;21066;-66
2022/09/19 01:12:54;;;;;;;0.72;0.72;;;;;;;10.90;91.96;98117.16;1677757;85;21136;-69
2022/09/19 01:15:38;;;;;;;0.80;0.80;;;;;;;10.89;91.98;98099.42;1663193;85;21679;-67
2022/09/19 01:18:06;;;;;;;;;;;;;;;10.91;92.08;98105.32;1684414;85;21132;-67
2022/09/19 01:24:16;;;;;;;1.60;1.02;;;;;;;10.90;92.76;98118.51;1713236;83;20968;-66
2022/09/19 01:27:27;;;;;;;0.70;0.70;;;;;;;10.90;92.76;98118.51;1711920;83;21069;-67
2022/09/19 01:30:11;;;;;;;0.70;0.70;;;;;;;10.90;93.06;98109.09;1711813;82;21011;-67
2022/09/19 01:33:03;;;;;;;0.78;0.78;;;;;;;10.90;93.60;98110.98;1711533;83;21600;-66
2022/09/19 01:35:40;;;;;;;0.80;0.80;;;;;;;10.87;94.07;98134.43;1711315;83;21043;-67
2022/09/19 01:38:21;;;;;;;0.80;0.80;;;;;;;10.87;94.50;98127.16;1723737;83;20980;-67
2022/09/19 01:40:49;;;;;;;0.95;0.90;;;;;;;10.90;94.77;98139.22;1722679;83;21010;-67
2022/09/19 01:43:16;;;;;;;0.93;0.93;;;;;;;10.92;95.10;98128.98;1725214;82;21003;-66
2022/09/19 01:45:44;;;;;;;1.00;0.98;;;;;;;10.93;95.34;98152.11;1727230;83;21135;-66
2022/09/19 01:48:29;;;;;;;0.90;0.90;;;;;;;10.93;95.62;98119.83;1727115;83;21511;-66
2022/09/19 01:51:25;;;;;;;1.85;1.15;;;;;;;10.97;95.76;98132.95;1713060;83;22287;-67
2022/09/19 01:54:13;;;;;;;1.27;1.22;;;;;;;11.00;95.88;98134.25;1711764;83;20992;-65
2022/09/19 01:57:15;;;;;;;1.57;1.00;;;;;;;11.01;96.01;98130.47;1710103;83;21048;-66
2022/09/19 01:59:53;;;;;;;1.65;1.30;;;;;;;11.02;96.02;98122.12;1695249;84;21167;-66
2022/09/19 02:02:33;;;;;;;1.00;1.00;;;;;;;11.03;96.11;98134.45;1686954;84;21676;-68
2022/09/19 02:05:08;;;;;;;3.98;1.25;;;;;;;11.05;96.23;98144.40;1695372;84;21565;-67
2022/09/19 02:08:08;;;;;;;1.00;1.00;;;;;;;11.08;96.14;98168.59;1691216;83;21084;-67
2022/09/19 02:10:43;;;;;;;2.00;1.42;;;;;;;11.10;96.00;98154.28;1711643;83;21151;-65
2022/09/19 02:13:10;;;;;;;1.27;1.17;;;;;;;11.12;95.76;98144.84;1710432;82;21085;-66
2022/09/19 02:15:50;;;;;;;1.25;1.25;;;;;;;11.13;95.39;98167.95;1711905;83;21001;-66
2022/09/19 02:18:29;;;;;;;2.20;1.30;;;;;;;11.15;95.05;98158.25;1683012;84;21050;-66
2022/09/19 02:21:01;;;;;;;1.17;1.05;;;;;;;11.16;94.72;98162.01;1687049;83;21045;-66
2022/09/19 02:23:29;;;;;;;1.05;0.95;;;;;;;11.18;93.98;98153.62;1697547;83;21047;-66
2022/09/19 02:25:56;;;;;;;0.90;0.90;;;;;;;11.19;93.95;98156.57;1683958;83;21104;-67
2022/09/19 02:28:30;;;;;;;1.05;1.05;;;;;;;11.19;93.92;98170.83;1699912;82;20998;-67
2022/09/19 02:30:57;;;;;;;1.27;1.10;;;;;;;11.23;93.73;98161.63;1712250;83;21081;-68
2022/09/19 02:33:27;;;;;;;1.00;1.00;;;;;;;11.24;93.33;98174.80;1711762;83;20981;-69
2022/09/19 02:35:59;;;;;;;1.30;1.20;;;;;;;11.26;93.00;98179.90;1726842;81;20958;-67
2022/09/19 02:38:49;;;;;;;1.75;1.00;;;;;;;11.24;92.46;98190.14;1712429;83;21073;-66
2022/09/19 02:41:36;;;;;;;1.60;1.20;;;;;;;11.21;92.04;98184.01;1733973;81;21569;-67
2022/09/19 02:44:19;;;;;;;1.15;1.05;;;;;;;11.20;92.13;98204.73;1688079;83;21067;-67
2022/09/19 02:47:12;;;;;;;1.00;1.00;;;;;;;11.20;91.40;98205.27;1711721;83;21544;-67
2022/09/19 02:49:54;;;;;;;2.00;1.47;;;;;;;11.20;91.00;98224.91;1712578;83;21592;-67
2022/09/19 02:52:30;;;;;;;0.80;0.80;;;;;;;11.19;90.86;98211.73;1711725;83;21119;-65
2022/09/19 02:55:13;;;;;;;0.80;0.80;;;;;;;11.19;90.63;98217.12;1711570;83;21633;-67
2022/09/19 02:57:43;;;;;;;0.90;0.90;;;;;;;11.19;90.58;98220.61;1728336;82;20930;-66
2022/09/19 03:00:13;;;;;;;0.90;0.90;;;;;;;11.20;90.41;98215.49;1737309;82;20990;-66
2022/09/19 03:02:56;;;;;;;0.80;0.80;;;;;;;11.22;90.20;98244.24;1737466;82;21018;-66
2022/09/19 03:05:20;;;;;;;0.90;0.90;;;;;;;11.26;89.88;98237.76;1711437;82;21149;-67
2022/09/19 03:08:09;;;;;;;1.20;1.17;;;;;;;11.26;89.54;98241.25;1728132;82;21377;-65
2022/09/19 03:10:38;;;;;;;1.42;1.00;;;;;;;11.25;89.48;98248.27;1711827;83;21026;-64
2022/09/19 03:13:08;;;;;;;0.90;0.90;;;;;;;11.22;89.64;98237.52;1718752;82;21043;-65
2022/09/19 03:16:02;;;;;;;1.20;0.90;;;;;;;11.23;89.83;98262.53;1713165;83;21085;-65
2022/09/19 03:18:30;;;;;;;1.00;1.00;;;;;;;11.22;89.89;98260.39;1685820;83;21093;-66
2022/09/19 03:21:02;;;;;;;1.15;1.10;;;;;;;11.22;90.01;98248.84;1711712;83;21062;-66
2022/09/19 03:23:35;;;;;;;1.25;1.15;;;;;;;11.22;90.16;98257.70;1665601;83;25062;-64
2022/09/19 03:26:02;;;;;;;1.00;1.00;;;;;;;11.20;90.30;98254.51;1720935;82;21179;-66
2022/09/19 03:28:29;;;;;;;1.40;1.30;;;;;;;11.20;90.54;98282.77;1747427;81;21015;-66
2022/09/19 03:30:59;;;;;;;1.50;1.40;;;;;;;11.19;90.63;98277.13;1732405;82;21213;-66
2022/09/19 03:33:27;;;;;;;1.12;1.12;;;;;;;11.22;90.81;98279.22;1723052;83;20962;-65
2022/09/19 03:35:56;;;;;;;1.65;1.55;;;;;;;11.25;90.95;98281.36;1733520;81;20946;-66
2022/09/19 03:38:23;;;;;;;1.82;1.72;;;;;;;11.28;91.08;98286.69;1723064;83;21081;-66
2022/09/19 03:40:50;;;;;;;2.27;1.80;;;;;;;11.27;91.27;98287.23;1723084;83;21065;-64
2022/09/19 03:43:17;;;;;;;2.20;1.87;;;;;;;11.27;91.56;98284.55;1723069;83;21157;-64
2022/09/19 03:45:44;;;;;;;2.72;1.90;;;;;;;11.29;91.96;98305.80;1728225;83;20990;-65
2022/09/19 03:48:12;;;;;;;2.50;1.65;;;;;;;11.29;92.27;98293.69;1728862;83;21105;-68
2022/09/19 03:50:39;;;;;;;2.62;2.30;;;;;;;11.31;92.53;98295.02;1738453;81;21106;-69
2022/09/19 03:53:09;;;;;;;2.45;2.25;;;;;;;11.33;92.75;98313.01;1748623;81;21038;-69
2022/09/19 03:55:37;;;;;;;2.70;2.37;;;;;;;11.33;93.04;98304.94;1740079;81;21325;-68
2022/09/19 03:58:04;;;;;;;3.00;2.37;;;;;;;11.32;93.15;98318.67;1731055;82;21029;-67
2022/09/19 04:00:33;;;;;;;2.27;1.82;;;;;;;11.32;93.37;98315.97;1722273;81;21004;-67
2022/09/19 04:03:00;;;;;;;3.62;2.17;;;;;;;11.31;93.51;98351.53;1722994;83;21109;-68
2022/09/19 04:05:28;;;;;;;4.45;2.70;;;;;;;11.32;93.52;98339.66;1722971;83;21098;-66
2022/09/19 04:07:56;;;;;;;2.85;2.65;;;;;;;11.34;93.50;98381.91;1723131;83;21312;-67
2022/09/19 04:10:22;;;;;;;2.58;2.27;;;;;;;11.35;93.34;98343.68;1722609;83;21101;-66
2022/09/19 04:12:50;;;;;;;3.25;3.05;;;;;;;11.37;93.39;98343.63;1723035;83;21133;-68
2022/09/19 04:15:17;;;;;;;2.62;2.45;;;;;;;11.40;93.10;98341.47;1723856;81;21098;-68
2022/09/19 04:17:44;;;;;;;3.65;2.92;;;;;;;11.41;93.07;98360.58;1683891;83;21049;-67
2022/09/19 04:20:15;;;;;;;2.22;2.12;;;;;;;11.41;92.98;98362.73;1710211;83;21112;-66
2022/09/19 04:23:02;;;;;;;4.05;2.92;;;;;;;11.42;93.01;98389.08;1710992;83;21066;-67
2022/09/19 04:25:48;;;;;;;4.58;2.30;;;;;;;11.43;93.09;98381.27;1708227;83;20911;-66
2022/09/19 04:28:18;;;;;;;3.67;2.42;;;;;;;11.43;92.89;98365.11;1706262;83;21058;-68
2022/09/19 04:30:47;;;;;;;4.35;2.52;;;;;;;11.44;92.98;98370.76;1716249;82;21057;-67
2022/09/19 04:33:15;;;;;;;3.30;2.75;;;;;;;11.46;92.85;98370.75;1721072;83;21266;-67
2022/09/19 04:35:44;;;;;;;5.50;2.83;;;;;;;11.47;92.60;98390.36;1698401;83;20994;-68
2022/09/19 04:38:17;;;;;;;3.75;2.40;;;;;;;11.46;92.59;98401.70;1719083;83;22301;-66
2022/09/19 04:40:48;;;;;;;2.58;2.37;;;;;;;11.47;92.50;98389.83;1685163;83;21018;-68
2022/09/19 04:43:18;;;;;;;2.75;2.35;;;;;;;11.47;92.44;98385.78;1710842;82;21553;-67
2022/09/19 04:45:48;;;;;;;2.62;2.33;;;;;;;11.48;92.37;98408.94;1709807;83;21299;-68
2022/09/19 04:48:19;;;;;;;3.00;2.77;;;;;;;11.49;92.27;98383.62;1717619;82;21597;-68
2022/09/19 04:50:50;;;;;;;4.97;3.62;;;;;;;11.47;92.29;98406.52;1712062;82;21000;-66
2022/09/19 04:53:19;;;;;;;3.10;2.90;;;;;;;11.48;92.28;98431.81;1710875;83;21065;-67
2022/09/19 04:55:52;;;;;;;3.47;3.15;;;;;;;11.49;92.04;98425.34;1694119;83;21071;-68
2022/09/19 04:58:20;;;;;;;2.77;2.58;;;;;;;11.51;91.90;98438.53;1694272;83;21257;-67
2022/09/19 05:00:53;;;;;;;5.55;3.10;;;;;;;11.51;91.52;98433.15;1710564;83;21034;-68
2022/09/19 05:03:20;;;;;;;2.72;2.52;;;;;;;11.53;91.35;98405.38;1710823;83;21060;-68
2022/09/19 05:05:50;;;;;;;4.87;3.35;;;;;;;11.56;91.17;98423.09;1722828;83;21033;-70
2022/09/19 05:08:26;;;;;;;4.60;3.40;;;;;;;11.57;91.05;98417.17;1722832;83;21381;-65
2022/09/19 05:11:00;;;;;;;2.83;2.62;;;;;;;11.60;90.94;98428.73;1716771;82;21165;-67
2022/09/19 05:13:30;;;;;;;3.30;3.00;;;;;;;11.62;90.89;98440.81;1710992;83;21061;-66
2022/09/19 05:15:59;;;;;;;3.30;3.00;;;;;;;11.62;90.37;98432.73;1714221;82;21069;-70
2022/09/19 05:18:35;;;;;;;2.80;2.60;;;;;;;11.65;90.41;98432.72;1649984;84;21527;-67
2022/09/19 05:21:05;;;;;;;3.37;2.95;;;;;;;11.67;90.22;98453.41;1682745;83;21759;-66
2022/09/19 05:23:35;;;;;;;2.90;2.65;;;;;;;11.69;90.09;98447.20;1703292;82;21100;-67
2022/09/19 05:26:07;;;;;;;5.50;3.37;;;;;;;11.69;90.01;98485.72;1700763;84;21369;-69
2022/09/19 05:28:36;;;;;;;3.27;2.98;;;;;;;11.73;89.88;98467.12;1646697;84;21118;-67
2022/09/19 05:31:07;;;;;;;3.80;2.92;;;;;;;11.73;89.52;98471.16;1677278;84;21046;-66
2022/09/19 05:33:36;;;;;;;3.33;3.00;;;;;;;11.73;89.52;98475.20;1689338;84;21520;-67
2022/09/19 05:36:06;;;;;;;5.72;3.20;;;;;;;11.74;89.43;98463.34;1668056;84;21003;-66
2022/09/19 05:38:36;;;;;;;3.52;3.22;;;;;;;11.76;89.45;98480.00;1697604;83;21138;-66
2022/09/19 05:41:07;;;;;;;4.50;4.17;;;;;;;11.78;89.37;98484.03;1711354;83;21199;-68
2022/09/19 05:43:43;;;;;;;3.37;3.08;;;;;;;11.76;89.22;98480.80;1696999;84;21125;-68
2022/09/19 05:46:10;;;;;;;3.08;2.87;;;;;;;11.75;89.17;98502.09;1672185;85;21564;-68
2022/09/19 05:48:38;;;;;;;3.77;2.50;;;;;;;11.75;89.21;98514.75;1689028;84;21813;-66
2022/09/19 05:51:05;;;;;;;2.75;2.55;;;;;;;11.75;89.21;98537.65;1710845;83;21513;-66
2022/09/19 05:56:33;;;;;;;4.12;3.60;;;;;;;11.77;89.03;98514.73;1719179;83;21043;-65
2022/09/19 05:59:03;;;;;;;3.90;3.50;;;;;;;11.76;89.06;98514.47;1710084;82;21051;-67
2022/09/19 06:01:31;;;;;;;3.30;3.00;;;;;;;11.77;89.00;98517.97;1704745;83;21169;-65
2022/09/19 06:03:59;;;;;;;3.40;3.17;;;;;;;11.77;88.75;98550.30;1674167;85;21072;-66
2022/09/19 06:06:29;;;;;;;3.58;3.27;;;;;;;11.76;88.81;98540.06;1716357;83;20950;-67
2022/09/19 06:08:57;;;;;;;5.42;2.77;;;;;;;11.77;88.98;98531.44;1688834;84;21026;-66
2022/09/19 06:11:26;;;;;;;3.60;3.30;;;;;;;11.78;89.04;98557.30;1698664;84;21015;-67
2022/09/19 06:16:41;;;;;;;3.27;3.08;;;;;;;11.79;89.00;98569.69;1688856;84;21038;-68
2022/09/19 06:19:19;;;;;;;6.70;3.83;;;;;;;11.78;89.04;98567.53;1678702;84;20973;-66
2022/09/19 06:21:47;;;;;;;3.20;3.00;;;;;;;11.79;89.11;98561.60;1687464;83;21590;-67
2022/09/19 06:24:15;;;;;;;4.47;3.33;;;;;;;11.84;89.10;98579.60;1701869;83;21031;-66
2022/09/19 06:26:42;;;;;;;4.30;3.75;;;;;;;11.86;88.97;98586.30;1702401;84;21580;-66
2022/09/19 06:29:10;;;;;;;6.22;4.35;;;;;;;11.85;88.83;98600.84;1710503;83;21595;-67
2022/09/19 06:31:39;;;;;;;4.03;3.72;;;;;;;11.87;88.97;98583.06;1710153;83;21028;-67
2022/09/19 06:34:12;;;;;;;4.33;3.92;;;;;;;11.86;88.66;98586.84;1709930;83;20956;-66
2022/09/19 06:36:44;;;;;;;4.05;3.58;;;;;;;11.86;88.46;98606.50;1710411;83;21027;-66
2022/09/19 06:39:09;;;;;;;4.33;3.92;;;;;;;11.90;88.29;98610.23;1710412;83;21164;-66
2022/09/19 06:41:38;;;;;;;4.00;3.70;;;;;;;11.93;88.35;98604.30;1710307;83;21064;-65
2022/09/19 06:44:10;;;;;;;4.35;3.95;;;;;;;11.99;88.13;98637.38;1658685;82;21509;-66
2022/09/19 06:46:41;;;;;;;5.22;3.72;;;;;;;12.00;88.06;98614.72;1702895;83;21089;-66
2022/09/19 06:49:10;;;;;;;3.83;3.25;;;;;;;12.03;87.78;98619.55;1710463;83;21631;-67
2022/09/19 06:51:38;;;;;;;3.90;3.47;;;;;;;12.05;87.40;98632.98;1655479;83;21143;-67
2022/09/19 06:54:05;;;;;;;3.33;3.12;;;;;;;12.10;87.31;98625.39;1710578;83;21006;-66
2022/09/19 06:56:33;;;;;;;3.70;3.40;;;;;;;12.14;86.98;98642.05;1710692;83;21122;-68
2022/09/19 06:59:02;;;;;;;3.80;3.50;;;;;;;12.19;86.59;98646.59;1710045;83;21070;-65
2022/09/19 07:01:28;;;;;;;4.80;3.90;;;;;;;12.21;86.44;98642.53;1716930;82;21157;-65
2022/09/19 07:03:56;;;;;;;3.77;3.47;;;;;;;12.23;85.92;98677.27;1710611;83;21231;-64
2022/09/19 07:06:25;;;;;;;4.78;3.33;;;;;;;12.22;85.78;98650.08;1709427;83;21074;-66
2022/09/19 07:09:07;;;;;;;3.92;3.33;;;;;;;12.21;85.60;98668.14;1689662;83;20994;-65
2022/09/19 07:11:36;;;;;;;3.00;2.80;;;;;;;12.25;85.49;98669.72;1710808;83;21613;-67
2022/09/19 07:14:04;;;;;;;8.30;3.70;;;;;;;12.32;85.64;98663.99;1710211;82;21519;-65
2022/09/19 07:16:33;;;;;;;3.80;3.50;;;;;;;12.37;84.44;98674.73;1710059;82;20935;-68
2022/09/19 07:19:00;;;;;;;5.62;3.05;;;;;;;12.40;84.44;98674.95;1710519;83;21586;-66
2022/09/19 07:21:44;;;;;;;3.60;3.30;;;;;;;12.46;84.19;98659.52;1709130;83;21078;-66
2022/09/19 07:24:12;;;;;;;6.33;3.15;;;;;;;12.53;83.22;98652.68;1710187;83;21134;-68
2022/09/19 07:26:47;;;;;;;5.53;3.40;;;;;;;12.62;82.96;98678.47;1683779;83;21082;-68
2022/09/19 07:29:16;;;;;;;3.17;2.67;;;;;;;12.70;82.41;98680.55;1721611;83;21156;-67
2022/09/19 07:31:43;;;;;;;3.12;2.83;;;;;;;12.78;82.12;98662.91;1721222;83;21010;-67
2022/09/19 07:34:10;;;;;;;7.53;3.08;;;;;;;12.85;81.92;98658.78;1721866;83;21103;-66
2022/09/19 07:36:38;;;;;;;3.33;2.77;;;;;;;12.91;81.02;98697.27;1720528;83;21003;-66
2022/09/19 07:39:05;;;;;;;2.80;2.42;;;;;;;12.94;80.82;98685.92;1721904;83;21043;-66
2022/09/19 07:41:47;;;;;;;5.47;2.75;;;;;;;12.97;80.87;98674.53;1675656;83;22218;-68
2022/09/19 07:44:32;;;;;;;6.55;3.20;;;;;;;13.03;80.94;98682.83;1722091;83;22450;-66
2022/09/19 07:47:26;;;;;;;4.00;2.70;;;;;;;13.09;81.04;98681.10;1721089;83;21079;-66
2022/09/19 07:50:11;;;;;;;2.98;2.10;;;;;;;13.15;80.18;98685.92;1673025;83;21127;-68
2022/09/19 07:52:40;;;;;;;2.47;2.27;;;;;;;13.14;79.49;98687.58;1721703;83;21516;-68
2022/09/19 07:55:11;;;;;;;3.45;2.77;;;;;;;13.14;79.49;98687.58;1721913;83;21107;-67
2022/09/19 07:57:51;;;;;;;3.25;2.92;;;;;;;13.16;79.71;98694.28;1721882;83;20967;-66
2022/09/19 08:00:18;;;;;;;2.95;2.55;;;;;;;13.21;79.39;98695.56;1721158;83;21135;-66
2022/09/19 08:02:56;;;;;;;3.37;2.98;;;;;;;13.24;78.30;98740.88;1721137;83;21575;-66
2022/09/19 08:05:23;;;;;;;2.67;2.47;;;;;;;13.26;77.87;98723.04;1721999;83;21049;-65
2022/09/19 08:07:51;;;;;;;3.35;2.67;;;;;;;13.28;78.14;98693.32;1721995;83;21135;-66
2022/09/19 08:10:19;;;;;;;5.85;2.98;;;;;;;13.30;76.84;98722.16;1722020;83;20948;-62
2022/09/19 08:12:48;;;;;;;4.15;3.42;;;;;;;13.34;77.07;98734.53;1722033;83;21083;-63
2022/09/19 08:15:17;;;;;;;7.15;3.12;;;;;;;13.36;77.11;98721.55;1703178;84;21009;-68
2022/09/19 08:18:08;;;;;;;3.15;2.45;;;;;;;13.39;77.49;98729.87;1702097;83;21028;-66
2022/09/19 08:20:37;;;;;;;4.42;2.75;;;;;;;13.42;76.91;98719.05;1689418;83;22053;-65
2022/09/19 08:23:13;;;;;;;3.35;2.47;;;;;;;13.41;76.58;98737.14;1703098;83;21052;-68
2022/09/19 08:25:46;;;;;;;6.22;2.80;;;;;;;13.36;76.50;98808.78;1705497;83;21014;-67
2022/09/19 08:28:11;;;;;;;3.27;3.08;;;;;;;13.31;76.25;98762.12;1710635;83;21002;-64
2022/09/19 08:30:38;;;;;;;3.72;2.45;;;;;;;13.23;76.93;98741.98;1690640;82;21144;-66
2022/09/19 08:33:07;;;;;;;3.58;2.62;;;;;;;13.17;77.43;98754.48;1688599;83;21277;-67
2022/09/19 08:35:37;;;;;;;3.10;2.60;;;;;;;13.06;77.88;98751.87;1710814;83;21039;-67
2022/09/19 08:38:06;;;;;;;3.00;2.80;;;;;;;13.05;78.30;98758.91;1710537;83;21030;-66
2022/09/19 08:41:06;;;;;;;6.62;3.10;;;;;;;13.02;78.67;98752.20;1682080;85;21797;-65
2022/09/19 08:43:58;;;;;;;3.20;2.90;;;;;;;13.02;78.76;98783.24;1750674;81;21042;-65
2022/09/19 08:47:00;;;;;;;3.27;2.98;;;;;;;12.99;78.73;98766.28;1724849;82;21829;-65
2022/09/19 08:49:52;;;;;;;3.98;3.27;;;;;;;12.97;78.42;98796.80;1706282;82;21085;-65
2022/09/19 08:52:48;;;;;;;4.30;3.50;;;;;;;12.92;78.38;98828.42;1706947;83;21055;-65
2022/09/19 08:55:21;;;;;;;3.50;3.20;;;;;;;12.86;78.44;98777.75;1710318;82;21079;-67
2022/09/19 08:57:59;;;;;;;4.33;3.40;;;;;;;12.88;78.67;98800.41;1710206;83;21062;-65
2022/09/19 09:00:32;;;;;;;4.30;3.22;;;;;;;12.91;78.03;98797.13;1716253;82;21090;-65
2022/09/19 09:03:06;;;;;;;4.25;3.85;;;;;;;12.96;78.47;98785.73;1694220;83;21086;-66
2022/09/19 09:06:01;;;;;;;3.58;3.08;;;;;;;13.06;78.20;98784.81;1695686;82;21092;-66
2022/09/19 09:08:46;;;;;;;4.08;3.60;;;;;;;13.15;77.92;98799.31;1715456;83;21229;-66
2022/09/19 09:11:38;;;;;;;6.05;3.37;;;;;;;13.25;77.73;98814.58;1713501;83;21064;-65
2022/09/19 09:14:26;;;;;;;8.73;4.05;;;;;;;13.31;76.45;98820.19;1716356;82;21538;-67
2022/09/19 09:17:14;;;;;;;5.47;3.20;;;;;;;13.33;75.99;98806.64;1714429;83;21536;-64
2022/09/19 09:20:24;;;;;;;4.03;2.95;;;;;;;13.40;76.13;98799.55;1701537;83;21115;-69
2022/09/19 09:22:55;;;;;;;3.65;3.25;;;;;;;13.47;75.23;98842.69;1683670;83;21004;-66
2022/09/19 09:25:30;;;;;;;4.25;3.58;;;;;;;13.49;73.87;98812.66;1707432;83;22200;-66
2022/09/19 09:28:26;;;;;;;4.08;3.17;;;;;;;13.46;74.18;98840.27;1720206;83;22225;-64
2022/09/19 09:30:53;;;;;;;4.00;3.30;;;;;;;13.47;73.32;98854.84;1719317;83;21561;-65
2022/09/19 09:33:28;;;;;;;3.45;3.05;;;;;;;13.45;72.92;98834.59;1721397;83;21072;-68
2022/09/19 09:36:23;;;;;;;3.42;3.12;;;;;;;13.39;73.24;98834.39;1692922;84;21018;-65
2022/09/19 09:38:51;;;;;;;3.70;3.40;;;;;;;13.37;73.54;98851.45;1716276;83;21595;-65
2022/09/19 09:41:45;;;;;;;4.30;3.87;;;;;;;13.37;73.87;98850.10;1721545;83;21147;-67
2022/09/19 09:44:25;;;;;;;;;;;;;;;13.38;74.05;98863.88;1724513;83;21037;-67
2022/09/19 09:47:24;;;;;;;4.08;3.33;;;;;;;13.42;74.17;98850.85;1721940;83;20192;-71
2022/09/19 09:50:03;;;;;;;4.12;3.30;;;;;;;13.44;74.01;98877.55;1721318;83;21052;-71
2022/09/19 09:52:50;;;;;;;3.65;3.30;;;;;;;13.44;73.14;98876.20;1719478;83;21100;-70
2022/09/19 09:58:37;;;;;;;7.83;3.95;;;;;;;13.56;73.24;98861.75;1704902;83;20976;-66
2022/09/19 10:04:40;;;;;;;4.30;3.20;;;;;;;13.69;71.89;98885.36;1722111;83;21580;-66
2022/09/19 10:07:45;;;;;;;5.75;3.35;;;;;;;13.71;71.42;98874.27;1722350;83;21057;-65
2022/09/19 10:10:16;;;;;;;4.20;3.62;;;;;;;13.73;71.33;98881.52;1619732;83;21946;-67
2022/09/19 10:13:01;;;;;;;5.60;4.87;;;;;;;13.77;71.33;98900.91;1706550;83;21011;-66
2022/09/19 10:15:28;;;;;;;4.70;3.25;;;;;;;13.79;71.27;98882.52;1715540;83;21568;-66
2022/09/19 10:18:09;;;;;;;6.72;3.90;;;;;;;13.80;71.33;98886.84;1702905;84;20930;-70
2022/09/19 10:20:49;;;;;;;4.12;2.98;;;;;;;13.86;71.59;98900.52;1718847;83;21036;-68
2022/09/19 10:23:24;;;;;;;4.15;3.75;;;;;;;13.90;71.05;98893.47;1728894;82;21926;-69
2022/09/19 10:26:03;;;;;;;9.88;3.80;;;;;;;13.96;71.24;98890.13;1735122;82;21048;-67
2022/09/19 10:28:43;;;;;;;4.45;3.80;;;;;;;13.98;70.52;98903.63;1716816;81;21562;-66
2022/09/19 10:31:34;;;;;;;3.60;2.95;;;;;;;14.06;69.79;98894.59;1699107;83;21039;-71
2022/09/19 10:34:05;;;;;;;3.87;3.52;;;;;;;14.16;69.76;98888.49;1726479;82;21100;-70
2022/09/19 10:36:33;;;;;;;6.40;3.30;;;;;;;14.25;68.43;98904.86;1711077;83;21228;-67
2022/09/19 10:39:15;;;;;;;5.20;3.08;;;;;;;14.30;67.50;98919.11;1730594;81;20939;-67
2022/09/19 10:41:43;;;;;;;3.80;3.50;;;;;;;14.33;67.11;98915.03;1726460;82;21026;-67
2022/09/19 10:44:26;;;;;;;3.77;2.72;;;;;;;14.39;65.88;98928.75;1707492;83;21526;-67
2022/09/19 10:47:02;;;;;;;9.45;3.15;;;;;;;14.47;65.80;98941.64;1706986;82;21162;-70
2022/09/19 10:49:39;;;;;;;6.60;3.72;;;;;;;14.46;65.19;98939.22;1703744;83;22273;-70
2022/09/19 10:52:06;;;;;;;7.45;5.00;;;;;;;14.52;64.83;98920.46;1669154;83;21559;-70
2022/09/19 10:54:41;;;;;;;3.42;3.10;;;;;;;14.59;65.27;98931.16;1694564;84;21065;-68
2022/09/19 10:57:45;;;;;;;3.10;2.80;;;;;;;14.67;65.32;98933.22;1711259;83;21577;-69
2022/09/19 11:00:28;;;;;;;5.03;3.05;;;;;;;14.78;63.73;98966.31;1711042;83;21017;-66
2022/09/19 11:03:01;;;;;;;3.15;2.52;;;;;;;14.90;63.41;98948.27;1719111;83;21159;-68
2022/09/19 11:05:31;;;;;;;5.28;3.33;;;;;;;15.01;62.84;98943.73;1715481;83;21092;-68
2022/09/19 11:07:59;;;;;;;4.45;3.00;;;;;;;15.05;61.95;98934.48;1691831;83;21041;-66
2022/09/19 11:10:40;;;;;;;4.60;2.80;;;;;;;15.11;62.29;98950.88;1702051;83;21727;-66
2022/09/19 11:13:15;;;;;;;4.00;2.85;;;;;;;15.16;61.45;98961.62;1719445;83;21059;-66
2022/09/19 11:16:16;;;;;;;4.90;2.52;;;;;;;15.23;60.85;98936.31;1682907;85;21116;-64
2022/09/19 11:19:35;;;;;;;4.70;3.12;;;;;;;15.25;60.49;98957.16;1699304;84;20985;-65
2022/09/19 11:22:20;;;;;;;3.50;3.02;;;;;;;15.32;60.30;98944.55;1667848;84;21168;-64
2022/09/19 11:25:12;;;;;;;2.72;2.35;;;;;;;15.49;59.85;98948.28;1695727;84;21113;-64
2022/09/19 11:27:50;;;;;;;4.25;3.05;;;;;;;15.61;58.43;98959.48;1680392;83;21078;-66
2022/09/19 11:30:26;;;;;;;6.50;2.70;;;;;;;15.71;58.35;98974.74;1702739;83;21146;-63
2022/09/19 11:33:17;;;;;;;5.03;2.47;;;;;;;15.80;57.04;98960.73;1697462;83;20982;-65
2022/09/19 11:36:20;;;;;;;4.25;2.90;;;;;;;15.80;57.35;98962.64;1717217;83;21100;-69
2022/09/19 11:39:18;;;;;;;5.92;3.08;;;;;;;15.78;57.64;98982.48;1705342;83;21123;-64
2022/09/19 11:42:23;;;;;;;4.35;3.05;;;;;;;15.70;57.24;98967.16;1690343;84;22253;-64
2022/09/19 11:45:05;;;;;;;6.00;3.30;;;;;;;15.60;57.28;98981.45;1668928;84;21790;-68
2022/09/19 11:47:56;;;;;;;5.70;3.15;;;;;;;15.51;58.13;98995.45;1681675;84;21082;-69
2022/09/19 11:50:49;;;;;;;3.50;2.75;;;;;;;15.50;58.14;98972.92;1662770;83;21621;-67
2022/09/19 11:53:45;;;;;;;5.67;2.37;;;;;;;15.49;58.25;98981.38;1673512;84;22241;-67
2022/09/19 11:56:44;;;;;;;4.33;2.85;;;;;;;15.46;58.19;98999.57;1714799;83;21872;-67
2022/09/19 11:59:42;;;;;;;6.15;3.52;;;;;;;15.39;55.67;99011.37;1709707;83;21837;-64
2022/09/19 12:02:36;;;;;;;5.15;2.62;;;;;;;15.30;55.87;98991.48;1712295;83;20909;-64
2022/09/19 12:05:20;;;;;;;3.10;2.37;;;;;;;15.25;56.59;98993.73;1725157;82;24947;-64
2022/09/19 12:08:02;;;;;;;3.83;2.77;;;;;;;15.22;56.69;98994.30;1717060;83;21048;-65
2022/09/19 12:10:48;;;;;;;5.92;2.52;;;;;;;15.18;57.18;98991.94;1717347;83;21022;-67
2022/09/19 12:13:25;;;;;;;6.20;2.55;;;;;;;15.17;57.01;99018.22;1710675;83;21390;-67
2022/09/19 12:16:06;;;;;;;6.65;2.92;;;;;;;15.14;57.34;98999.86;1723040;83;21058;-65
2022/09/19 12:18:42;;;;;;;3.33;3.02;;;;;;;15.12;57.24;99009.36;1724003;83;20977;-66
2022/09/19 12:21:09;;;;;;;4.62;2.67;;;;;;;15.08;57.31;98994.27;1723054;83;21057;-70
2022/09/19 12:26:44;;;;;;;2.37;2.17;;;;;;;15.00;57.53;99011.74;1722933;82;21291;-67
2022/09/19 12:29:34;;;;;;;5.17;2.90;;;;;;;14.98;57.33;99008.52;1722071;82;48353;-66
2022/09/19 12:32:15;;;;;;;3.55;2.30;;;;;;;14.96;57.53;99016.14;1703658;83;21583;-65
2022/09/19 12:35:04;;;;;;;4.80;2.40;;;;;;;15.01;57.05;99007.94;1698542;83;21531;-68
2022/09/19 12:38:10;;;;;;;4.15;2.17;;;;;;;15.14;57.28;99003.12;1709957;83;21662;-65